Time;durP1;ratioP1;P1;durP2;ratioP2;P2;SDS_P1;SDS_P2;PMS_P1;PMS_P2;Temp;Humidity;BMP_temperature;BMP_pressure;BME280_temperature;BME280_humidity;BME280_pressure;Samples;Min_cycle;Max_cycle;Signal;HPM_P1;HPM_P2
2021/10/07 00:01:26;;;;;;;16.60;15.17;;;9.70;1.00;;;;;;5000211;28;20453;-78
2021/10/07 00:03:54;;;;;;;12.53;11.33;;;9.70;1.00;;;;;;5001342;28;20438;-80
2021/10/07 00:06:21;;;;;;;12.23;11.03;;;9.70;1.00;;;;;;4992366;28;21815;-79
2021/10/07 00:08:48;;;;;;;13.63;12.33;;;9.60;1.00;;;;;;4999324;28;20997;-79
2021/10/07 00:11:16;;;;;;;12.63;11.20;;;9.60;1.00;;;;;;4998589;28;20480;-79
2021/10/07 00:13:43;;;;;;;12.63;11.33;;;9.60;1.00;;;;;;5000022;28;20457;-79
2021/10/07 00:16:11;;;;;;;11.95;10.82;;;9.60;1.00;;;;;;4995197;28;20476;-77
2021/10/07 00:18:40;;;;;;;12.50;11.27;;;9.60;1.00;;;;;;5001240;28;20233;-79
2021/10/07 00:21:10;;;;;;;13.10;11.80;;;9.60;1.00;;;;;;4997094;28;20452;-79
2021/10/07 00:23:45;;;;;;;13.10;11.80;;;9.60;1.00;;;;;;4997848;28;20457;-79
2021/10/07 00:26:11;;;;;;;13.17;11.97;;;9.60;1.00;;;;;;4997550;28;20421;-80
2021/10/07 00:28:38;;;;;;;12.77;11.53;;;9.60;1.00;;;;;;4994227;28;20451;-80
2021/10/07 00:31:14;;;;;;;13.10;11.80;;;9.50;1.00;;;;;;4996461;28;21526;-79
2021/10/07 00:33:51;;;;;;;13.10;11.80;;;9.50;1.00;;;;;;4997215;28;21258;-79
2021/10/07 00:36:34;;;;;;;13.53;12.33;;;9.40;1.00;;;;;;4998978;28;20480;-79
2021/10/07 00:39:03;;;;;;;12.20;11.07;;;9.40;1.00;;;;;;4998949;28;20457;-79
2021/10/07 00:41:30;;;;;;;12.40;11.40;;;9.40;1.00;;;;;;5000871;28;20312;-79
2021/10/07 00:44:03;;;;;;;13.23;11.90;;;9.30;1.00;;;;;;4997609;28;20464;-79
2021/10/07 00:46:30;;;;;;;12.63;11.43;;;9.30;1.00;;;;;;5000643;28;20463;-80
2021/10/07 00:48:59;;;;;;;12.20;11.20;;;9.30;1.00;;;;;;4997653;28;20436;-80
2021/10/07 00:51:29;;;;;;;12.70;11.45;;;9.30;1.00;;;;;;4999865;28;21005;-79
2021/10/07 00:53:55;;;;;;;12.17;11.07;;;9.30;1.00;;;;;;5002770;28;20240;-80
2021/10/07 00:56:22;;;;;;;13.80;11.33;;;9.30;1.00;;;;;;5016652;28;20430;-79
2021/10/07 00:58:49;;;;;;;14.25;12.95;;;9.30;1.00;;;;;;5017773;28;20477;-78
2021/10/07 01:01:15;;;;;;;13.77;12.40;;;9.30;1.00;;;;;;5002016;28;20232;-79
2021/10/07 01:03:42;;;;;;;12.40;11.30;;;9.40;1.00;;;;;;5005556;28;20484;-79
2021/10/07 01:06:09;;;;;;;13.77;12.53;;;9.40;1.00;;;;;;5003064;28;21491;-79
2021/10/07 01:08:37;;;;;;;12.83;11.63;;;9.30;1.00;;;;;;5001663;28;22259;-79
2021/10/07 01:11:04;;;;;;;13.35;12.25;;;9.30;1.00;;;;;;5000395;28;20453;-78
2021/10/07 01:13:31;;;;;;;11.47;10.47;;;9.20;1.00;;;;;;5001229;28;20221;-78
2021/10/07 01:16:01;;;;;;;12.90;11.70;;;9.10;1.00;;;;;;5004327;28;21401;-78
2021/10/07 01:18:28;;;;;;;13.60;12.25;;;9.10;1.00;;;;;;5004094;28;20223;-79
2021/10/07 01:20:56;;;;;;;13.07;11.87;;;9.10;1.00;;;;;;5002954;28;20336;-80
2021/10/07 01:23:23;;;;;;;12.68;11.45;;;9.10;1.00;;;;;;4995641;28;21020;-79
2021/10/07 01:25:49;;;;;;;14.73;11.85;;;9.10;1.00;;;;;;4998998;28;21067;-78
2021/10/07 01:28:16;;;;;;;13.87;12.57;;;9.10;1.00;;;;;;5020130;28;20226;-80
2021/10/07 01:30:43;;;;;;;12.98;11.80;;;9.10;1.00;;;;;;5015147;28;20435;-78
2021/10/07 01:33:10;;;;;;;14.13;12.63;;;9.10;1.00;;;;;;5011886;28;20225;-77
2021/10/07 01:35:37;;;;;;;14.60;13.27;;;9.10;1.00;;;;;;5014156;28;21294;-80
2021/10/07 01:38:06;;;;;;;12.07;11.07;;;9.00;1.00;;;;;;5000074;28;21257;-81
2021/10/07 01:40:32;;;;;;;11.68;10.57;;;9.10;1.00;;;;;;5002643;28;23002;-81
2021/10/07 01:42:59;;;;;;;12.10;10.90;;;9.10;1.00;;;;;;5000858;28;21378;-80
2021/10/07 01:45:26;;;;;;;13.00;11.70;;;9.00;1.00;;;;;;5003773;28;22245;-80
2021/10/07 01:47:52;;;;;;;13.20;11.90;;;9.00;1.00;;;;;;5004072;28;20261;-79
2021/10/07 01:50:19;;;;;;;13.45;11.80;;;9.00;1.00;;;;;;5000297;28;20821;-78
2021/10/07 01:52:46;;;;;;;11.93;10.82;;;8.90;1.00;;;;;;5004322;28;24782;-79
2021/10/07 01:55:13;;;;;;;12.80;11.55;;;8.90;1.00;;;;;;4999592;28;20225;-78
2021/10/07 01:57:40;;;;;;;13.15;11.85;;;8.80;1.00;;;;;;5011546;28;20226;-78
2021/10/07 02:00:09;;;;;;;12.45;11.32;;;8.70;1.00;;;;;;5018734;28;20235;-79
2021/10/07 02:02:36;;;;;;;13.43;11.10;;;8.70;1.00;;;;;;5011924;28;20915;-79
2021/10/07 02:05:03;;;;;;;13.85;12.55;;;8.70;1.00;;;;;;5002338;28;20220;-80
2021/10/07 02:07:30;;;;;;;13.20;11.50;;;8.70;1.00;;;;;;4997344;28;21632;-77
2021/10/07 02:09:56;;;;;;;12.25;11.15;;;8.70;1.00;;;;;;5000335;28;20234;-79
2021/10/07 02:12:24;;;;;;;13.27;11.20;;;8.70;1.00;;;;;;5011893;28;20238;-79
2021/10/07 02:14:51;;;;;;;12.32;11.23;;;8.80;1.00;;;;;;5023967;28;20228;-77
2021/10/07 02:17:18;;;;;;;13.18;11.32;;;8.70;1.00;;;;;;5020228;28;20234;-78
2021/10/07 02:19:44;;;;;;;13.98;12.32;;;8.70;1.00;;;;;;5024723;28;20235;-79
2021/10/07 02:22:11;;;;;;;12.95;11.13;;;8.70;1.00;;;;;;5019818;28;21006;-79
2021/10/07 02:24:38;;;;;;;12.38;11.07;;;8.60;1.00;;;;;;5020289;28;20256;-78
2021/10/07 02:27:05;;;;;;;12.52;11.32;;;8.50;1.00;;;;;;5017840;28;20227;-77
2021/10/07 02:29:33;;;;;;;14.20;11.65;;;8.50;1.00;;;;;;5008101;28;20237;-78
2021/10/07 02:31:59;;;;;;;12.65;11.45;;;8.50;1.00;;;;;;4994543;28;20243;-78
2021/10/07 02:34:26;;;;;;;12.07;10.85;;;8.50;1.00;;;;;;4999817;28;20233;-79
2021/10/07 02:36:53;;;;;;;12.85;11.32;;;8.50;1.00;;;;;;5001356;28;21377;-77
2021/10/07 02:39:19;;;;;;;12.18;11.07;;;8.60;1.00;;;;;;5018969;28;20258;-78
2021/10/07 02:41:46;;;;;;;12.60;11.50;;;8.60;1.00;;;;;;5025968;28;20232;-78
2021/10/07 02:44:13;;;;;;;12.68;11.48;;;8.60;1.00;;;;;;5021791;28;20223;-78
2021/10/07 02:46:40;;;;;;;13.13;11.55;;;8.60;1.00;;;;;;5027076;28;20711;-77
2021/10/07 02:49:07;;;;;;;12.15;10.95;;;8.60;1.00;;;;;;5014876;28;20223;-78
2021/10/07 02:51:34;;;;;;;13.88;12.48;;;8.70;1.00;;;;;;5012735;28;20244;-79
2021/10/07 02:54:01;;;;;;;12.90;11.80;;;8.60;1.00;;;;;;5019473;28;20269;-78
2021/10/07 02:56:27;;;;;;;12.95;11.63;;;8.70;1.00;;;;;;4997508;28;20435;-80
2021/10/07 02:58:54;;;;;;;14.35;12.35;;;8.70;1.00;;;;;;5011362;28;20594;-79
2021/10/07 03:01:21;;;;;;;13.75;12.43;;;8.60;1.00;;;;;;5000226;28;21057;-79
2021/10/07 03:03:49;;;;;;;14.00;12.50;;;8.60;1.00;;;;;;5001392;28;20357;-78
2021/10/07 03:06:16;;;;;;;13.93;12.43;;;8.60;1.00;;;;;;5006490;28;20231;-79
2021/10/07 03:08:42;;;;;;;13.43;12.23;;;8.60;1.00;;;;;;5010372;28;20235;-78
2021/10/07 03:11:09;;;;;;;14.70;12.80;;;8.50;1.00;;;;;;5004953;28;20230;-78
2021/10/07 03:13:36;;;;;;;14.55;12.60;;;8.50;1.00;;;;;;5002409;28;20576;-80
2021/10/07 03:16:03;;;;;;;15.80;11.88;;;8.50;1.00;;;;;;5000175;28;20247;-78
2021/10/07 03:18:29;;;;;;;14.55;12.80;;;8.50;1.00;;;;;;4998362;28;20275;-79
2021/10/07 03:20:57;;;;;;;15.10;12.25;;;8.40;1.00;;;;;;5003114;28;20224;-79
2021/10/07 03:23:24;;;;;;;14.57;13.00;;;8.40;1.00;;;;;;4996922;28;21583;-79
2021/10/07 03:25:51;;;;;;;14.70;13.27;;;8.40;1.00;;;;;;5002923;28;20279;-80
2021/10/07 03:28:17;;;;;;;17.55;13.05;;;8.40;1.00;;;;;;4997480;28;20275;-80
2021/10/07 03:30:44;;;;;;;13.10;11.90;;;8.40;1.00;;;;;;5003437;28;20231;-80
2021/10/07 03:33:11;;;;;;;14.77;13.38;;;8.40;1.00;;;;;;4995975;28;22323;-79
2021/10/07 03:35:38;;;;;;;13.80;12.52;;;8.30;1.00;;;;;;4994797;28;20232;-80
2021/10/07 03:38:06;;;;;;;13.67;12.17;;;8.30;1.00;;;;;;5002893;28;20282;-79
2021/10/07 03:40:34;;;;;;;14.88;12.45;;;8.30;1.00;;;;;;5006631;28;20736;-80
2021/10/07 03:43:01;;;;;;;14.38;12.50;;;8.30;1.00;;;;;;5005377;28;20869;-80
2021/10/07 03:45:28;;;;;;;15.63;13.50;;;8.30;1.00;;;;;;5000795;28;20351;-79
2021/10/07 03:47:55;;;;;;;15.40;11.70;;;8.30;1.00;;;;;;5023515;28;20286;-78
2021/10/07 03:50:22;;;;;;;12.27;11.00;;;8.20;1.00;;;;;;5020788;28;20235;-81
2021/10/07 03:52:48;;;;;;;13.80;12.40;;;8.20;1.00;;;;;;5005169;28;21173;-80
2021/10/07 03:55:17;;;;;;;13.50;12.10;;;8.20;1.00;;;;;;5001027;28;20951;-79
2021/10/07 03:57:43;;;;;;;13.38;11.77;;;8.20;1.00;;;;;;5007708;28;20369;-80
2021/10/07 04:00:11;;;;;;;12.55;11.35;;;8.10;1.00;;;;;;5005006;28;20253;-79
2021/10/07 04:02:38;;;;;;;13.13;11.85;;;8.10;1.00;;;;;;5001328;28;20226;-79
2021/10/07 04:05:06;;;;;;;13.60;12.20;;;8.10;1.00;;;;;;5010655;28;21458;-79
2021/10/07 04:07:33;;;;;;;12.52;11.32;;;8.10;1.00;;;;;;5011489;28;20236;-78
2021/10/07 04:10:00;;;;;;;13.07;11.65;;;8.10;1.00;;;;;;5015448;28;20599;-78
2021/10/07 04:12:28;;;;;;;13.27;11.98;;;8.10;1.00;;;;;;5014435;28;20233;-78
2021/10/07 04:14:54;;;;;;;13.70;12.35;;;8.10;1.00;;;;;;5008511;28;20218;-79
2021/10/07 04:17:21;;;;;;;13.52;12.20;;;8.10;1.00;;;;;;5003842;28;20260;-81
2021/10/07 04:19:47;;;;;;;13.43;11.65;;;8.10;1.00;;;;;;5000837;28;20584;-80
2021/10/07 04:22:14;;;;;;;13.85;12.50;;;8.10;1.00;;;;;;5011725;28;20220;-82
2021/10/07 04:24:41;;;;;;;13.38;12.07;;;8.00;1.00;;;;;;5010102;28;20230;-78
2021/10/07 04:27:07;;;;;;;17.73;12.95;;;8.10;1.00;;;;;;5002294;28;20232;-81
2021/10/07 04:29:35;;;;;;;17.05;12.50;;;8.00;1.00;;;;;;5002942;28;20223;-79
2021/10/07 04:32:02;;;;;;;14.43;12.90;;;8.10;1.00;;;;;;4996675;28;20345;-80
2021/10/07 04:34:29;;;;;;;15.30;12.48;;;8.10;1.00;;;;;;4997498;28;20238;-80
2021/10/07 04:36:56;;;;;;;12.65;11.15;;;8.10;1.00;;;;;;4997827;28;20239;-78
2021/10/07 04:39:22;;;;;;;13.20;11.90;;;8.10;1.00;;;;;;5001598;28;20226;-78
2021/10/07 04:41:49;;;;;;;14.10;11.98;;;8.10;1.00;;;;;;4993912;28;20238;-77
2021/10/07 04:44:16;;;;;;;14.10;12.75;;;8.00;1.00;;;;;;4998130;28;20240;-79
2021/10/07 04:46:44;;;;;;;12.32;11.07;;;8.00;1.00;;;;;;5000866;28;20229;-79
2021/10/07 04:49:11;;;;;;;12.90;11.23;;;8.00;1.00;;;;;;5008630;28;20225;-78
2021/10/07 04:51:37;;;;;;;12.48;11.27;;;7.90;1.00;;;;;;5018292;28;20244;-78
2021/10/07 04:54:04;;;;;;;12.23;11.13;;;7.90;1.00;;;;;;5010056;28;20238;-78
2021/10/07 04:56:31;;;;;;;12.52;11.32;;;7.90;1.00;;;;;;4997356;28;20275;-80
2021/10/07 04:58:58;;;;;;;13.30;11.95;;;8.00;1.00;;;;;;5000061;28;20277;-76
2021/10/07 05:01:24;;;;;;;13.48;11.80;;;8.00;1.00;;;;;;4996500;28;20234;-76
2021/10/07 05:03:52;;;;;;;13.65;12.27;;;8.00;1.00;;;;;;4995657;28;20249;-75
2021/10/07 05:06:20;;;;;;;12.60;10.93;;;8.00;1.00;;;;;;4993005;28;20223;-75
2021/10/07 05:08:47;;;;;;;14.27;12.88;;;8.00;1.00;;;;;;4999413;28;20223;-77
2021/10/07 05:11:13;;;;;;;14.68;13.05;;;8.00;1.00;;;;;;5001692;28;20232;-76
2021/10/07 05:13:40;;;;;;;13.18;11.35;;;8.00;1.00;;;;;;4999351;28;21159;-77
2021/10/07 05:16:07;;;;;;;16.10;13.52;;;8.00;1.00;;;;;;5000663;28;20730;-76
2021/10/07 05:18:34;;;;;;;14.25;12.05;;;7.90;1.00;;;;;;4990694;28;20227;-76
2021/10/07 05:21:02;;;;;;;13.23;11.93;;;8.00;1.00;;;;;;4999417;28;20230;-76
2021/10/07 05:23:29;;;;;;;14.10;12.60;;;8.00;1.00;;;;;;4995727;28;20230;-76
2021/10/07 05:25:56;;;;;;;13.88;11.48;;;8.00;1.00;;;;;;4999272;28;20226;-77
2021/10/07 05:28:22;;;;;;;14.70;12.50;;;8.00;1.00;;;;;;5000820;28;20751;-75
2021/10/07 05:30:51;;;;;;;14.02;12.70;;;8.00;1.00;;;;;;5002602;28;20691;-77
2021/10/07 05:33:19;;;;;;;14.60;13.18;;;8.00;1.00;;;;;;4998348;28;20227;-77
2021/10/07 05:35:46;;;;;;;13.85;12.45;;;8.00;1.00;;;;;;5002103;28;20222;-77
2021/10/07 05:38:14;;;;;;;18.73;12.48;;;8.10;1.00;;;;;;5001977;28;20270;-76
2021/10/07 05:40:41;;;;;;;17.05;12.23;;;8.10;1.00;;;;;;5002977;28;20235;-77
2021/10/07 05:43:09;;;;;;;15.32;13.73;;;8.10;1.00;;;;;;5001685;28;20232;-76
2021/10/07 05:45:36;;;;;;;18.80;13.18;;;8.20;1.00;;;;;;5009053;28;20446;-77
2021/10/07 05:48:03;;;;;;;18.60;16.58;;;8.30;1.00;;;;;;5002859;28;20234;-77
2021/10/07 05:50:30;;;;;;;15.70;13.68;;;8.30;1.00;;;;;;5002921;28;20251;-76
2021/10/07 05:52:56;;;;;;;14.77;13.25;;;8.30;1.00;;;;;;5005575;28;20231;-76
2021/10/07 05:55:24;;;;;;;14.20;12.75;;;8.30;1.00;;;;;;5011099;28;20218;-76
2021/10/07 05:57:51;;;;;;;18.67;14.15;;;8.30;1.00;;;;;;5000580;28;20246;-76
2021/10/07 06:00:18;;;;;;;14.05;12.52;;;8.30;1.00;;;;;;5005175;28;21015;-75
2021/10/07 06:02:44;;;;;;;33.70;14.07;;;8.30;1.00;;;;;;5002194;28;20236;-78
2021/10/07 06:05:11;;;;;;;18.90;13.48;;;8.30;1.00;;;;;;5007733;28;20233;-76
2021/10/07 06:07:38;;;;;;;19.15;15.23;;;8.40;1.00;;;;;;5005115;28;20219;-76
2021/10/07 06:10:06;;;;;;;17.55;14.82;;;8.40;1.00;;;;;;5007580;28;20219;-77
2021/10/07 06:12:35;;;;;;;19.70;14.60;;;8.50;1.00;;;;;;5005991;28;20999;-76
2021/10/07 06:15:02;;;;;;;15.90;13.70;;;8.50;1.00;;;;;;5004147;28;20452;-77
2021/10/07 06:17:29;;;;;;;15.45;13.85;;;8.50;1.00;;;;;;5002942;28;20311;-76
2021/10/07 06:20:01;;;;;;;15.23;13.07;;;8.60;1.00;;;;;;5006791;28;20876;-77
2021/10/07 06:22:28;;;;;;;20.25;15.68;;;8.60;1.00;;;;;;4998920;28;20226;-77
2021/10/07 06:24:54;;;;;;;16.42;13.20;;;8.70;1.00;;;;;;4998314;28;20680;-77
2021/10/07 06:27:21;;;;;;;18.48;12.60;;;8.70;1.00;;;;;;5006548;28;20229;-78
2021/10/07 06:29:50;;;;;;;14.57;13.15;;;8.80;1.00;;;;;;4997102;28;21022;-76
2021/10/07 06:32:17;;;;;;;14.20;13.00;;;8.80;1.00;;;;;;4998811;28;20237;-77
2021/10/07 06:34:44;;;;;;;14.05;12.70;;;8.90;1.00;;;;;;5000843;28;20238;-77
2021/10/07 06:37:10;;;;;;;18.70;16.40;;;9.10;1.00;;;;;;5001157;28;20224;-77
2021/10/07 06:39:37;;;;;;;21.20;19.13;;;9.20;1.00;;;;;;5001821;28;20541;-76
2021/10/07 06:42:04;;;;;;;15.05;13.63;;;9.30;1.00;;;;;;4995043;28;20230;-77
2021/10/07 06:44:31;;;;;;;14.60;13.13;;;9.40;1.00;;;;;;5001891;28;20277;-77
2021/10/07 06:46:58;;;;;;;17.93;16.13;;;9.60;1.00;;;;;;5003182;28;20453;-77
2021/10/07 06:49:25;;;;;;;16.10;14.37;;;9.70;1.00;;;;;;5004508;28;20441;-78
2021/10/07 06:51:52;;;;;;;16.05;14.45;;;9.80;1.00;;;;;;4998807;28;20454;-77
2021/10/07 06:54:18;;;;;;;15.93;14.50;;;10.00;1.00;;;;;;4998413;28;20221;-77
2021/10/07 06:56:45;;;;;;;15.37;13.77;;;10.10;1.00;;;;;;4995472;28;20470;-76
2021/10/07 06:59:12;;;;;;;15.50;13.93;;;10.20;1.00;;;;;;4992518;28;20460;-77
2021/10/07 07:01:39;;;;;;;16.10;13.43;;;10.40;1.00;;;;;;5002461;28;20478;-77
2021/10/07 07:04:07;;;;;;;15.70;14.00;;;10.50;1.00;;;;;;4995281;28;20466;-78
2021/10/07 07:06:34;;;;;;;17.67;15.87;;;10.60;1.00;;;;;;4995597;28;20438;-82
2021/10/07 07:09:01;;;;;;;17.37;15.00;;;10.80;1.00;;;;;;4996530;28;20545;-79
2021/10/07 07:11:28;;;;;;;16.57;14.83;;;10.90;1.00;;;;;;4989935;28;20478;-78
2021/10/07 07:13:55;;;;;;;16.10;14.40;;;11.00;1.00;;;;;;4991731;28;20522;-79
2021/10/07 07:16:22;;;;;;;14.90;12.90;;;11.10;1.00;;;;;;4993815;28;20446;-78
2021/10/07 07:18:49;;;;;;;17.23;14.70;;;11.20;1.00;;;;;;4997352;28;20479;-77
2021/10/07 07:21:19;;;;;;;15.40;13.60;;;11.30;1.00;;;;;;4995704;28;20458;-77
2021/10/07 07:23:46;;;;;;;15.23;13.73;;;11.40;1.00;;;;;;4996251;28;21936;-78
2021/10/07 07:26:13;;;;;;;15.33;13.73;;;11.50;1.00;;;;;;4994604;28;20465;-77
2021/10/07 07:28:39;;;;;;;15.30;13.30;;;11.60;1.00;;;;;;4995698;28;20613;-78
2021/10/07 07:31:06;;;;;;;13.53;11.77;;;11.80;1.00;;;;;;4998529;28;20449;-78
2021/10/07 07:33:33;;;;;;;15.40;13.77;;;11.90;1.00;;;;;;4994334;28;21034;-77
2021/10/07 07:35:59;;;;;;;13.77;12.27;;;12.00;1.00;;;;;;4991409;28;20462;-77
2021/10/07 07:38:27;;;;;;;16.90;13.00;;;12.00;1.00;;;;;;4995041;28;20503;-78
2021/10/07 07:40:54;;;;;;;15.30;13.80;;;12.20;1.00;;;;;;4994916;28;20440;-77
2021/10/07 07:43:21;;;;;;;15.33;13.73;;;12.20;1.00;;;;;;4996388;28;20434;-76
2021/10/07 07:45:48;;;;;;;16.80;13.83;;;12.30;1.00;;;;;;4994603;28;20496;-76
2021/10/07 07:48:15;;;;;;;14.60;13.20;;;12.40;1.00;;;;;;4993784;28;20477;-77
2021/10/07 07:50:42;;;;;;;17.70;15.90;;;12.50;1.00;;;;;;4993768;28;20465;-77
2021/10/07 07:53:10;;;;;;;15.23;12.10;;;12.60;1.00;;;;;;4991604;28;20457;-77
2021/10/07 07:55:38;;;;;;;17.70;13.50;;;12.70;1.00;;;;;;4995351;28;20549;-77
2021/10/07 07:58:05;;;;;;;15.20;13.70;;;12.80;1.00;;;;;;4997009;28;21170;-76
2021/10/07 08:00:32;;;;;;;15.57;13.97;;;12.90;1.00;;;;;;4999517;28;21407;-77
2021/10/07 08:02:59;;;;;;;16.37;14.67;;;13.10;1.00;;;;;;5000304;28;20456;-76
2021/10/07 08:05:26;;;;;;;14.73;13.27;;;13.20;1.00;;;;;;4992652;28;20454;-77
2021/10/07 08:07:52;;;;;;;14.70;13.07;;;13.30;1.00;;;;;;4998210;28;20458;-78
2021/10/07 08:10:19;;;;;;;16.07;14.43;;;13.50;1.00;;;;;;4993149;28;20924;-77
2021/10/07 08:12:47;;;;;;;17.63;15.60;;;13.60;1.00;;;;;;4996739;28;20473;-78
2021/10/07 08:15:14;;;;;;;14.90;13.30;;;13.70;1.00;;;;;;4992983;28;20533;-77
2021/10/07 08:17:41;;;;;;;16.33;14.37;;;13.90;1.00;;;;;;4996585;28;20485;-78
2021/10/07 08:20:10;;;;;;;15.20;13.70;;;14.00;1.00;;;;;;4991786;28;20470;-76
2021/10/07 08:22:37;;;;;;;16.60;13.10;;;14.10;1.00;;;;;;4990241;28;20458;-78
2021/10/07 08:25:05;;;;;;;14.37;12.80;;;14.20;1.00;;;;;;4992238;28;20465;-76
2021/10/07 08:27:32;;;;;;;15.63;13.10;;;14.40;1.00;;;;;;4993729;28;20477;-78
2021/10/07 08:30:00;;;;;;;13.70;11.87;;;14.50;1.00;;;;;;4991310;28;20441;-77
2021/10/07 08:32:26;;;;;;;13.13;11.90;;;14.80;1.00;;;;;;4991131;28;20465;-78
2021/10/07 08:34:53;;;;;;;13.47;11.87;;;15.30;1.00;;;;;;4994327;28;21020;-79
2021/10/07 08:37:20;;;;;;;13.80;11.00;;;15.60;1.00;;;;;;4991682;28;21125;-76
2021/10/07 08:39:47;;;;;;;15.53;12.10;;;15.70;1.00;;;;;;4994122;28;20450;-77
2021/10/07 08:42:15;;;;;;;13.10;10.30;;;15.70;1.00;;;;;;4991944;28;21183;-78
2021/10/07 08:44:43;;;;;;;12.67;10.43;;;15.90;1.00;;;;;;4995857;28;21356;-77
2021/10/07 08:47:12;;;;;;;12.80;9.27;;;16.60;1.00;;;;;;4993462;28;21658;-77
2021/10/07 08:49:42;;;;;;;8.93;8.03;;;18.10;1.00;;;;;;4989999;28;20453;-76
2021/10/07 08:52:09;;;;;;;8.70;7.80;;;20.00;1.00;;;;;;4995062;28;20462;-77
2021/10/07 08:54:36;;;;;;;8.13;6.73;;;21.40;1.00;;;;;;4995423;28;21024;-78
2021/10/07 08:57:04;;;;;;;9.50;6.50;;;22.10;1.00;;;;;;4989880;28;21030;-78
2021/10/07 08:59:32;;;;;;;8.60;7.87;;;22.70;1.00;;;;;;4990320;28;20457;-78
2021/10/07 09:02:01;;;;;;;6.90;5.70;;;23.30;1.00;;;;;;4996015;28;20477;-78
2021/10/07 09:04:30;;;;;;;6.83;5.83;;;23.70;1.00;;;;;;4993979;28;21044;-78
2021/10/07 09:07:02;;;;;;;5.90;5.30;;;24.20;1.00;;;;;;4994670;28;20476;-77
2021/10/07 09:09:29;;;;;;;8.03;5.40;;;24.70;1.00;;;;;;4997344;28;20594;-78
2021/10/07 09:11:58;;;;;;;10.83;5.50;;;25.40;1.00;;;;;;4990603;28;20473;-77
2021/10/07 09:14:27;;;;;;;7.93;5.00;;;25.80;1.00;;;;;;4993257;28;20570;-78
2021/10/07 09:16:56;;;;;;;6.40;5.50;;;26.10;1.00;;;;;;4991282;28;20462;-77
2021/10/07 09:19:24;;;;;;;6.57;4.90;;;26.60;1.00;;;;;;4993551;28;20491;-76
2021/10/07 09:21:55;;;;;;;5.60;4.77;;;26.40;1.00;;;;;;4991350;28;20555;-77
2021/10/07 09:24:29;;;;;;;7.20;6.50;;;26.30;1.00;;;;;;4994121;28;20463;-77
2021/10/07 09:27:00;;;;;;;8.43;6.00;;;26.40;1.00;;;;;;4993615;28;20456;-80
2021/10/07 09:29:36;;;;;;;9.63;8.93;;;26.20;1.00;;;;;;4998752;28;22041;-77
2021/10/07 09:32:04;;;;;;;7.73;6.47;;;25.10;1.00;;;;;;4995132;28;20925;-76
2021/10/07 09:34:38;;;;;;;7.37;5.20;;;24.10;1.00;;;;;;4999998;28;20429;-77
2021/10/07 09:37:25;;;;;;;7.43;6.40;;;23.90;1.00;;;;;;4998435;28;21266;-78
2021/10/07 09:39:53;;;;;;;5.97;4.87;;;23.50;1.00;;;;;;4996992;28;20472;-77
2021/10/07 09:42:22;;;;;;;7.23;6.63;;;23.10;1.00;;;;;;4995349;28;21015;-78
2021/10/07 09:45:06;;;;;;;5.40;4.90;;;22.50;1.00;;;;;;5012009;28;20922;-77
2021/10/07 09:47:34;;;;;;;5.90;4.70;;;21.90;1.00;;;;;;4995868;28;20590;-76
2021/10/07 09:50:15;;;;;;;11.17;10.23;;;21.20;1.00;;;;;;5002241;28;20467;-77
2021/10/07 09:52:45;;;;;;;9.30;6.17;;;20.30;1.00;;;;;;4995214;28;20482;-77
2021/10/07 09:55:14;;;;;;;7.00;4.40;;;19.70;1.00;;;;;;5004776;28;20462;-76
2021/10/07 09:57:55;;;;;;;7.37;4.70;;;19.30;1.00;;;;;;4999072;28;20452;-77
2021/10/07 10:00:25;;;;;;;9.07;5.20;;;19.00;1.00;;;;;;5004871;28;20423;-77
2021/10/07 10:02:53;;;;;;;6.13;4.53;;;19.30;1.00;;;;;;5003051;28;20902;-77
2021/10/07 10:05:20;;;;;;;4.87;4.10;;;19.80;1.00;;;;;;5000965;28;20476;-76
2021/10/07 10:07:48;;;;;;;7.47;4.30;;;19.90;1.00;;;;;;5000686;28;20568;-77
2021/10/07 10:10:15;;;;;;;4.30;3.83;;;20.50;1.00;;;;;;5003406;28;20443;-77
2021/10/07 10:12:42;;;;;;;5.03;3.40;;;21.30;1.00;;;;;;5004476;28;20539;-76
2021/10/07 10:15:10;;;;;;;5.17;3.80;;;22.40;1.00;;;;;;5002642;28;20464;-77
2021/10/07 10:17:37;;;;;;;6.80;3.83;;;23.30;1.00;;;;;;5001572;28;20474;-76
2021/10/07 10:20:09;;;;;;;4.73;3.70;;;23.60;1.00;;;;;;5001934;28;20457;-77
2021/10/07 10:22:35;;;;;;;4.70;3.73;;;23.90;1.00;;;;;;5002200;28;20485;-77
2021/10/07 10:25:05;;;;;;;5.33;3.50;;;25.70;1.00;;;;;;5007704;28;20965;-77
2021/10/07 10:27:49;;;;;;;4.90;4.10;;;27.40;1.00;;;;;;4995298;28;20491;-77
2021/10/07 10:30:26;;;;;;;3.93;3.00;;;28.50;1.00;;;;;;4999343;28;20460;-77
2021/10/07 10:32:55;;;;;;;4.60;3.87;;;29.60;1.00;;;;;;4998569;28;20498;-77
2021/10/07 10:35:37;;;;;;;4.40;3.67;;;28.70;1.00;;;;;;5002024;28;20455;-77
2021/10/07 10:38:06;;;;;;;3.83;3.23;;;26.70;1.00;;;;;;4990167;28;20460;-77
2021/10/07 10:40:35;;;;;;;9.30;3.47;;;25.70;1.00;;;;;;5002336;28;20469;-76
2021/10/07 10:43:36;;;;;;;5.60;3.97;;;24.90;1.00;;;;;;5000027;28;21775;-77
2021/10/07 10:46:14;;;;;;;4.43;3.80;;;24.40;1.00;;;;;;5001739;28;20467;-77
2021/10/07 10:49:00;;;;;;;4.67;4.13;;;25.30;1.00;;;;;;5000670;28;20465;-77
2021/10/07 10:51:32;;;;;;;4.40;3.93;;;26.40;1.00;;;;;;5000622;28;20457;-77
2021/10/07 10:54:00;;;;;;;5.80;3.80;;;26.80;1.00;;;;;;4997584;28;20920;-77
2021/10/07 10:56:32;;;;;;;6.40;4.07;;;28.00;1.00;;;;;;4997473;28;20969;-77
2021/10/07 10:59:17;;;;;;;5.93;3.60;;;29.20;1.00;;;;;;4995936;28;20573;-77
2021/10/07 11:01:44;;;;;;;4.70;4.00;;;30.00;1.00;;;;;;4996217;28;20454;-76
2021/10/07 11:04:11;;;;;;;3.57;3.27;;;30.20;1.00;;;;;;4998234;28;20547;-78
2021/10/07 11:07:11;;;;;;;7.67;4.07;;;30.90;1.00;;;;;;4998491;28;20467;-78
2021/10/07 11:09:55;;;;;;;5.43;3.30;;;32.10;1.00;;;;;;5003049;28;21006;-79
2021/10/07 11:12:23;;;;;;;4.50;3.93;;;33.60;1.00;;;;;;5008373;28;20452;-78
2021/10/07 11:14:50;;;;;;;5.43;2.73;;;34.10;1.00;;;;;;5005593;28;21543;-78
2021/10/07 11:17:18;;;;;;;2.67;2.47;;;34.30;1.00;;;;;;5000477;28;20493;-79
2021/10/07 11:19:46;;;;;;;3.67;3.00;;;35.00;1.00;;;;;;4999609;28;21006;-78
2021/10/07 11:22:13;;;;;;;4.90;3.47;;;35.10;1.00;;;;;;4998438;28;20452;-78
2021/10/07 11:24:50;;;;;;;9.20;3.10;;;35.30;1.00;;;;;;4999030;28;20445;-79
2021/10/07 11:27:27;;;;;;;5.97;3.07;;;35.70;1.00;;;;;;4999270;28;22280;-78
2021/10/07 11:29:55;;;;;;;4.07;2.47;;;36.30;1.00;;;;;;5001146;28;20472;-78
2021/10/07 11:32:23;;;;;;;4.53;2.57;;;37.10;1.00;;;;;;5002132;28;20541;-78
2021/10/07 11:34:58;;;;;;;8.90;3.10;;;37.10;1.00;;;;;;5000548;28;21452;-77
2021/10/07 11:37:25;;;;;;;7.73;3.00;;;37.10;1.00;;;;;;4998653;28;20428;-77
2021/10/07 11:39:52;;;;;;;8.10;3.40;;;37.10;1.00;;;;;;4998824;28;20568;-77
2021/10/07 11:42:39;;;;;;;8.33;3.87;;;36.80;1.00;;;;;;5002297;28;20466;-77
2021/10/07 11:45:20;;;;;;;3.50;2.77;;;37.00;1.00;;;;;;4999601;28;20449;-78
2021/10/07 11:47:47;;;;;;;5.83;3.57;;;36.60;1.00;;;;;;5003613;28;20457;-77
2021/10/07 11:50:14;;;;;;;3.87;2.63;;;36.70;1.00;;;;;;5002545;28;20465;-77
2021/10/07 11:52:41;;;;;;;5.50;4.00;;;37.10;1.00;;;;;;5003669;28;20458;-78
2021/10/07 11:55:09;;;;;;;5.17;3.73;;;37.20;1.00;;;;;;4999759;28;20465;-77
2021/10/07 11:57:35;;;;;;;4.90;2.50;;;37.40;1.00;;;;;;5004714;28;20452;-77
2021/10/07 12:00:02;;;;;;;3.90;2.40;;;37.90;1.00;;;;;;5008486;28;20465;-77
2021/10/07 12:02:30;;;;;;;2.67;2.00;;;38.40;1.00;;;;;;5013430;28;20501;-76
2021/10/07 12:05:17;;;;;;;5.27;2.73;;;38.10;1.00;;;;;;5005094;28;21423;-76
2021/10/07 12:08:01;;;;;;;3.73;2.00;;;37.90;1.00;;;;;;5010765;28;20445;-77
2021/10/07 12:10:35;;;;;;;2.40;1.80;;;37.40;1.00;;;;;;5004193;28;20468;-77
2021/10/07 12:13:06;;;;;;;2.90;2.27;;;36.00;1.00;;;;;;5006290;28;20791;-78
2021/10/07 12:15:33;;;;;;;3.13;1.93;;;35.10;1.00;;;;;;5005424;28;20466;-76
2021/10/07 12:18:01;;;;;;;3.40;1.87;;;34.90;1.00;;;;;;5007777;28;20525;-77
2021/10/07 12:20:27;;;;;;;4.87;2.50;;;33.90;1.00;;;;;;5007776;28;21173;-77
2021/10/07 12:23:00;;;;;;;4.17;2.07;;;32.00;1.00;;;;;;5006081;28;20424;-76
2021/10/07 12:25:27;;;;;;;5.10;2.70;;;30.80;1.00;;;;;;5015822;28;20458;-76
2021/10/07 12:28:01;;;;;;;5.03;2.30;;;30.00;1.00;;;;;;5014765;28;20589;-78
2021/10/07 12:30:28;;;;;;;3.20;1.90;;;29.50;1.00;;;;;;5015629;28;20471;-78
2021/10/07 12:35:57;;;;;;;3.23;1.97;;;28.80;1.00;;;;;;5063892;27;2040272;-78
2021/10/07 12:38:24;;;;;;;3.23;2.20;;;29.60;1.00;;;;;;5104808;27;20222;-79
2021/10/07 12:40:53;;;;;;;4.60;2.50;;;29.30;1.00;;;;;;5096992;27;20478;-78
2021/10/07 12:43:19;;;;;;;4.20;2.13;;;28.40;1.00;;;;;;5090728;27;20475;-79
2021/10/07 12:46:07;;;;;;;5.13;2.90;;;27.40;1.00;;;;;;5087764;27;20478;-77
2021/10/07 12:49:01;;;;;;;3.97;2.23;;;26.70;1.00;;;;;;5086604;27;21236;-78
2021/10/07 12:51:34;;;;;;;4.67;2.97;;;25.70;1.00;;;;;;5052148;27;20471;-79
2021/10/07 12:54:01;;;;;;;5.03;2.47;;;24.60;1.00;;;;;;5083817;27;20539;-78
2021/10/07 12:56:30;;;;;;;6.50;3.13;;;23.80;1.00;;;;;;5085937;27;20471;-77
2021/10/07 12:59:01;;;;;;;3.47;2.60;;;23.30;1.00;;;;;;5092831;27;20452;-77